sensor_id;sensor_type;location;lat;lon;timestamp;P1;durP1;ratioP1;P2;durP2;ratioP2
11618;SDS011;5865;48.776;9.280;2023-11-19T00:02:41;3.90;;;2.70;;
11618;SDS011;5865;48.776;9.280;2023-11-19T00:05:25;3.50;;;2.77;;
11618;SDS011;5865;48.776;9.280;2023-11-19T00:07:55;2.93;;;2.33;;
11618;SDS011;5865;48.776;9.280;2023-11-19T00:10:34;3.30;;;2.43;;
11618;SDS011;5865;48.776;9.280;2023-11-19T00:13:03;3.00;;;2.47;;
11618;SDS011;5865;48.776;9.280;2023-11-19T00:21:53;4.97;;;2.30;;
11618;SDS011;5865;48.776;9.280;2023-11-19T00:24:35;5.03;;;2.40;;
11618;SDS011;5865;48.776;9.280;2023-11-19T00:27:16;3.60;;;2.30;;
11618;SDS011;5865;48.776;9.280;2023-11-19T00:29:46;3.13;;;2.27;;
11618;SDS011;5865;48.776;9.280;2023-11-19T00:32:19;2.43;;;2.17;;
11618;SDS011;5865;48.776;9.280;2023-11-19T00:38:21;2.23;;;2.03;;
11618;SDS011;5865;48.776;9.280;2023-11-19T00:41:02;2.63;;;2.03;;
11618;SDS011;5865;48.776;9.280;2023-11-19T00:43:43;4.03;;;2.80;;
11618;SDS011;5865;48.776;9.280;2023-11-19T00:46:49;3.00;;;2.57;;
11618;SDS011;5865;48.776;9.280;2023-11-19T00:49:25;2.80;;;2.57;;
11618;SDS011;5865;48.776;9.280;2023-11-19T00:52:06;2.70;;;2.47;;
11618;SDS011;5865;48.776;9.280;2023-11-19T01:00:44;4.13;;;2.47;;
11618;SDS011;5865;48.776;9.280;2023-11-19T01:03:25;2.37;;;2.00;;
11618;SDS011;5865;48.776;9.280;2023-11-19T01:06:07;2.67;;;1.90;;
11618;SDS011;5865;48.776;9.280;2023-11-19T01:08:48;3.13;;;2.43;;
11618;SDS011;5865;48.776;9.280;2023-11-19T01:11:30;2.50;;;2.30;;
11618;SDS011;5865;48.776;9.280;2023-11-19T01:23:17;3.40;;;2.30;;
11618;SDS011;5865;48.776;9.280;2023-11-19T01:25:59;3.00;;;2.20;;
11618;SDS011;5865;48.776;9.280;2023-11-19T01:28:40;2.70;;;2.20;;
11618;SDS011;5865;48.776;9.280;2023-11-19T01:31:10;2.23;;;2.03;;
11618;SDS011;5865;48.776;9.280;2023-11-19T01:33:38;3.00;;;2.10;;
11618;SDS011;5865;48.776;9.280;2023-11-19T01:39:35;3.27;;;2.10;;
11618;SDS011;5865;48.776;9.280;2023-11-19T01:42:08;2.53;;;2.07;;
11618;SDS011;5865;48.776;9.280;2023-11-19T01:44:57;2.30;;;2.10;;
11618;SDS011;5865;48.776;9.280;2023-11-19T01:47:39;2.20;;;2.00;;
11618;SDS011;5865;48.776;9.280;2023-11-19T01:50:20;2.20;;;2.00;;
11618;SDS011;5865;48.776;9.280;2023-11-19T01:53:02;5.63;;;4.00;;
11618;SDS011;5865;48.776;9.280;2023-11-19T02:04:51;2.40;;;2.00;;
11618;SDS011;5865;48.776;9.280;2023-11-19T02:07:33;1.80;;;1.70;;
11618;SDS011;5865;48.776;9.280;2023-11-19T02:10:06;2.03;;;1.50;;
11618;SDS011;5865;48.776;9.280;2023-11-19T02:12:47;1.73;;;1.60;;
11618;SDS011;5865;48.776;9.280;2023-11-19T02:15:28;2.23;;;1.50;;
11618;SDS011;5865;48.776;9.280;2023-11-19T02:27:52;1.30;;;1.20;;
11618;SDS011;5865;48.776;9.280;2023-11-19T02:30:34;1.20;;;1.10;;
11618;SDS011;5865;48.776;9.280;2023-11-19T02:33:15;1.40;;;1.10;;
11618;SDS011;5865;48.776;9.280;2023-11-19T02:35:56;2.00;;;1.30;;
11618;SDS011;5865;48.776;9.280;2023-11-19T02:38:38;1.47;;;1.20;;
11618;SDS011;5865;48.776;9.280;2023-11-19T02:41:20;1.60;;;1.27;;
11618;SDS011;5865;48.776;9.280;2023-11-19T02:50:17;0.80;;;0.80;;
11618;SDS011;5865;48.776;9.280;2023-11-19T02:52:58;1.30;;;0.97;;
11618;SDS011;5865;48.776;9.280;2023-11-19T02:55:40;0.83;;;0.80;;
11618;SDS011;5865;48.776;9.280;2023-11-19T02:58:22;0.90;;;0.90;;
11618;SDS011;5865;48.776;9.280;2023-11-19T03:01:04;1.60;;;1.40;;
11618;SDS011;5865;48.776;9.280;2023-11-19T03:06:55;2.43;;;1.00;;
11618;SDS011;5865;48.776;9.280;2023-11-19T03:09:37;1.30;;;1.20;;
11618;SDS011;5865;48.776;9.280;2023-11-19T03:12:18;1.50;;;1.33;;
11618;SDS011;5865;48.776;9.280;2023-11-19T03:14:59;2.10;;;1.03;;
11618;SDS011;5865;48.776;9.280;2023-11-19T03:17:44;1.07;;;1.00;;
11618;SDS011;5865;48.776;9.280;2023-11-19T03:20:25;1.07;;;1.00;;
11618;SDS011;5865;48.776;9.280;2023-11-19T03:54:59;1.03;;;1.00;;
11618;SDS011;5865;48.776;9.280;2023-11-19T03:57:43;0.90;;;0.90;;
11618;SDS011;5865;48.776;9.280;2023-11-19T04:00:24;2.10;;;1.77;;
11618;SDS011;5865;48.776;9.280;2023-11-19T04:03:05;2.30;;;2.03;;
11618;SDS011;5865;48.776;9.280;2023-11-19T04:05:46;1.87;;;1.67;;
11618;SDS011;5865;48.776;9.280;2023-11-19T04:08:27;2.30;;;1.53;;
11618;SDS011;5865;48.776;9.280;2023-11-19T04:14:16;0.93;;;0.87;;
11618;SDS011;5865;48.776;9.280;2023-11-19T04:16:45;0.70;;;0.70;;
11618;SDS011;5865;48.776;9.280;2023-11-19T04:19:12;1.60;;;1.50;;
11618;SDS011;5865;48.776;9.280;2023-11-19T04:21:40;1.40;;;1.30;;
11618;SDS011;5865;48.776;9.280;2023-11-19T04:24:08;1.00;;;1.00;;
11618;SDS011;5865;48.776;9.280;2023-11-19T04:26:40;0.70;;;0.70;;
11618;SDS011;5865;48.776;9.280;2023-11-19T04:29:13;1.03;;;0.80;;
11618;SDS011;5865;48.776;9.280;2023-11-19T04:31:42;1.10;;;0.60;;
11618;SDS011;5865;48.776;9.280;2023-11-19T04:34:10;0.87;;;0.50;;
11618;SDS011;5865;48.776;9.280;2023-11-19T04:36:38;0.40;;;0.40;;
11618;SDS011;5865;48.776;9.280;2023-11-19T04:39:05;0.50;;;0.50;;
11618;SDS011;5865;48.776;9.280;2023-11-19T04:41:45;0.87;;;0.50;;
11618;SDS011;5865;48.776;9.280;2023-11-19T04:44:14;0.57;;;0.57;;
11618;SDS011;5865;48.776;9.280;2023-11-19T04:46:42;0.47;;;0.43;;
11618;SDS011;5865;48.776;9.280;2023-11-19T04:49:10;0.50;;;0.40;;
11618;SDS011;5865;48.776;9.280;2023-11-19T04:51:39;0.50;;;0.50;;
11618;SDS011;5865;48.776;9.280;2023-11-19T04:54:08;0.60;;;0.60;;
11618;SDS011;5865;48.776;9.280;2023-11-19T04:56:35;0.50;;;0.50;;
11618;SDS011;5865;48.776;9.280;2023-11-19T04:59:05;0.50;;;0.50;;
11618;SDS011;5865;48.776;9.280;2023-11-19T05:01:35;0.77;;;0.50;;
11618;SDS011;5865;48.776;9.280;2023-11-19T05:04:03;0.60;;;0.60;;
11618;SDS011;5865;48.776;9.280;2023-11-19T05:06:31;0.50;;;0.50;;
11618;SDS011;5865;48.776;9.280;2023-11-19T05:08:59;0.30;;;0.30;;
11618;SDS011;5865;48.776;9.280;2023-11-19T05:11:29;0.60;;;0.40;;
11618;SDS011;5865;48.776;9.280;2023-11-19T05:13:58;1.33;;;0.43;;
11618;SDS011;5865;48.776;9.280;2023-11-19T05:16:25;0.30;;;0.30;;
11618;SDS011;5865;48.776;9.280;2023-11-19T05:18:53;0.50;;;0.50;;
11618;SDS011;5865;48.776;9.280;2023-11-19T05:21:20;0.40;;;0.40;;
11618;SDS011;5865;48.776;9.280;2023-11-19T05:23:49;0.20;;;0.20;;
11618;SDS011;5865;48.776;9.280;2023-11-19T05:26:17;0.40;;;0.40;;
11618;SDS011;5865;48.776;9.280;2023-11-19T05:28:45;0.40;;;0.40;;
11618;SDS011;5865;48.776;9.280;2023-11-19T05:31:14;0.60;;;0.47;;
11618;SDS011;5865;48.776;9.280;2023-11-19T05:33:42;0.50;;;0.50;;
11618;SDS011;5865;48.776;9.280;2023-11-19T05:36:11;0.30;;;0.30;;
11618;SDS011;5865;48.776;9.280;2023-11-19T05:38:38;0.40;;;0.40;;
11618;SDS011;5865;48.776;9.280;2023-11-19T05:41:06;0.40;;;0.40;;
11618;SDS011;5865;48.776;9.280;2023-11-19T05:43:33;0.40;;;0.40;;
11618;SDS011;5865;48.776;9.280;2023-11-19T05:46:00;0.43;;;0.33;;
11618;SDS011;5865;48.776;9.280;2023-11-19T05:48:28;0.27;;;0.27;;
11618;SDS011;5865;48.776;9.280;2023-11-19T05:50:55;0.77;;;0.50;;
11618;SDS011;5865;48.776;9.280;2023-11-19T05:53:24;0.40;;;0.40;;
11618;SDS011;5865;48.776;9.280;2023-11-19T05:55:52;0.53;;;0.50;;
11618;SDS011;5865;48.776;9.280;2023-11-19T05:58:23;0.37;;;0.33;;
11618;SDS011;5865;48.776;9.280;2023-11-19T06:00:54;0.40;;;0.40;;
11618;SDS011;5865;48.776;9.280;2023-11-19T06:03:21;0.50;;;0.33;;
11618;SDS011;5865;48.776;9.280;2023-11-19T06:05:49;0.40;;;0.40;;
11618;SDS011;5865;48.776;9.280;2023-11-19T06:08:17;0.40;;;0.40;;
11618;SDS011;5865;48.776;9.280;2023-11-19T06:10:48;0.50;;;0.50;;
11618;SDS011;5865;48.776;9.280;2023-11-19T06:13:17;0.83;;;0.50;;
11618;SDS011;5865;48.776;9.280;2023-11-19T06:15:44;0.70;;;0.40;;
11618;SDS011;5865;48.776;9.280;2023-11-19T06:18:13;0.40;;;0.40;;
11618;SDS011;5865;48.776;9.280;2023-11-19T06:20:41;0.40;;;0.40;;
11618;SDS011;5865;48.776;9.280;2023-11-19T06:23:08;0.97;;;0.40;;
11618;SDS011;5865;48.776;9.280;2023-11-19T06:25:35;0.50;;;0.50;;
11618;SDS011;5865;48.776;9.280;2023-11-19T06:28:05;0.60;;;0.47;;
11618;SDS011;5865;48.776;9.280;2023-11-19T06:30:33;0.87;;;0.40;;
11618;SDS011;5865;48.776;9.280;2023-11-19T06:33:01;0.37;;;0.37;;
11618;SDS011;5865;48.776;9.280;2023-11-19T06:35:30;0.47;;;0.47;;
11618;SDS011;5865;48.776;9.280;2023-11-19T06:38:11;0.50;;;0.50;;
11618;SDS011;5865;48.776;9.280;2023-11-19T06:40:40;1.40;;;0.70;;
11618;SDS011;5865;48.776;9.280;2023-11-19T06:43:09;1.30;;;0.77;;
11618;SDS011;5865;48.776;9.280;2023-11-19T06:45:36;0.90;;;0.70;;
11618;SDS011;5865;48.776;9.280;2023-11-19T06:48:04;1.93;;;0.70;;
11618;SDS011;5865;48.776;9.280;2023-11-19T06:50:32;0.87;;;0.77;;
11618;SDS011;5865;48.776;9.280;2023-11-19T06:53:01;1.03;;;0.93;;
11618;SDS011;5865;48.776;9.280;2023-11-19T06:55:29;1.10;;;1.00;;
11618;SDS011;5865;48.776;9.280;2023-11-19T06:57:59;0.70;;;0.70;;
11618;SDS011;5865;48.776;9.280;2023-11-19T07:00:41;2.57;;;0.80;;
11618;SDS011;5865;48.776;9.280;2023-11-19T07:03:12;1.43;;;0.60;;
11618;SDS011;5865;48.776;9.280;2023-11-19T07:05:41;0.67;;;0.60;;
11618;SDS011;5865;48.776;9.280;2023-11-19T07:08:10;0.50;;;0.50;;
11618;SDS011;5865;48.776;9.280;2023-11-19T07:10:52;0.43;;;0.30;;
11618;SDS011;5865;48.776;9.280;2023-11-19T07:13:33;1.80;;;0.40;;
11618;SDS011;5865;48.776;9.280;2023-11-19T07:18:47;0.40;;;0.40;;
11618;SDS011;5865;48.776;9.280;2023-11-19T07:21:19;1.33;;;0.63;;
11618;SDS011;5865;48.776;9.280;2023-11-19T07:23:47;0.67;;;0.60;;
11618;SDS011;5865;48.776;9.280;2023-11-19T07:26:17;0.63;;;0.57;;
11618;SDS011;5865;48.776;9.280;2023-11-19T07:28:44;1.23;;;0.60;;
11618;SDS011;5865;48.776;9.280;2023-11-19T07:31:11;0.77;;;0.60;;
11618;SDS011;5865;48.776;9.280;2023-11-19T07:33:41;0.83;;;0.40;;
11618;SDS011;5865;48.776;9.280;2023-11-19T07:36:16;0.57;;;0.57;;
11618;SDS011;5865;48.776;9.280;2023-11-19T07:38:46;0.50;;;0.50;;
11618;SDS011;5865;48.776;9.280;2023-11-19T07:41:16;0.60;;;0.60;;
11618;SDS011;5865;48.776;9.280;2023-11-19T07:43:45;4.40;;;0.70;;
11618;SDS011;5865;48.776;9.280;2023-11-19T07:46:12;1.10;;;0.70;;
11618;SDS011;5865;48.776;9.280;2023-11-19T07:48:42;0.60;;;0.60;;
11618;SDS011;5865;48.776;9.280;2023-11-19T07:51:12;1.07;;;0.80;;
11618;SDS011;5865;48.776;9.280;2023-11-19T07:53:55;0.63;;;0.63;;
11618;SDS011;5865;48.776;9.280;2023-11-19T07:56:22;0.60;;;0.60;;
11618;SDS011;5865;48.776;9.280;2023-11-19T07:58:57;3.53;;;0.90;;
11618;SDS011;5865;48.776;9.280;2023-11-19T08:01:40;0.83;;;0.70;;
11618;SDS011;5865;48.776;9.280;2023-11-19T08:07:14;1.73;;;1.10;;
11618;SDS011;5865;48.776;9.280;2023-11-19T08:09:56;0.63;;;0.63;;
11618;SDS011;5865;48.776;9.280;2023-11-19T08:12:37;1.50;;;1.40;;
11618;SDS011;5865;48.776;9.280;2023-11-19T08:15:05;1.60;;;1.50;;
11618;SDS011;5865;48.776;9.280;2023-11-19T08:17:40;3.40;;;2.80;;
11618;SDS011;5865;48.776;9.280;2023-11-19T08:20:22;1.50;;;1.37;;
11618;SDS011;5865;48.776;9.280;2023-11-19T08:22:56;1.90;;;1.70;;
11618;SDS011;5865;48.776;9.280;2023-11-19T08:25:33;1.17;;;0.70;;
11618;SDS011;5865;48.776;9.280;2023-11-19T08:28:14;0.80;;;0.80;;
11618;SDS011;5865;48.776;9.280;2023-11-19T08:30:42;0.70;;;0.70;;
11618;SDS011;5865;48.776;9.280;2023-11-19T08:33:26;0.90;;;0.90;;
11618;SDS011;5865;48.776;9.280;2023-11-19T08:35:54;0.90;;;0.90;;
11618;SDS011;5865;48.776;9.280;2023-11-19T08:41:28;2.23;;;0.90;;
11618;SDS011;5865;48.776;9.280;2023-11-19T08:43:56;0.90;;;0.90;;
11618;SDS011;5865;48.776;9.280;2023-11-19T08:46:24;0.80;;;0.80;;
11618;SDS011;5865;48.776;9.280;2023-11-19T08:49:06;1.97;;;0.80;;
11618;SDS011;5865;48.776;9.280;2023-11-19T08:51:47;1.00;;;0.90;;
11618;SDS011;5865;48.776;9.280;2023-11-19T08:54:22;0.70;;;0.70;;
11618;SDS011;5865;48.776;9.280;2023-11-19T08:56:50;0.80;;;0.80;;
11618;SDS011;5865;48.776;9.280;2023-11-19T08:59:18;1.67;;;1.50;;
11618;SDS011;5865;48.776;9.280;2023-11-19T09:01:59;1.67;;;0.87;;
11618;SDS011;5865;48.776;9.280;2023-11-19T09:04:29;1.30;;;1.20;;
11618;SDS011;5865;48.776;9.280;2023-11-19T09:07:09;2.50;;;1.43;;
11618;SDS011;5865;48.776;9.280;2023-11-19T09:13:04;2.13;;;1.40;;
11618;SDS011;5865;48.776;9.280;2023-11-19T09:15:33;1.17;;;1.00;;
11618;SDS011;5865;48.776;9.280;2023-11-19T09:18:13;1.43;;;0.83;;
11618;SDS011;5865;48.776;9.280;2023-11-19T09:20:41;1.10;;;1.00;;
11618;SDS011;5865;48.776;9.280;2023-11-19T09:23:23;1.53;;;0.90;;
11618;SDS011;5865;48.776;9.280;2023-11-19T09:25:53;3.27;;;1.00;;
11618;SDS011;5865;48.776;9.280;2023-11-19T09:31:19;2.10;;;1.20;;
11618;SDS011;5865;48.776;9.280;2023-11-19T09:33:50;1.50;;;1.20;;
11618;SDS011;5865;48.776;9.280;2023-11-19T09:36:17;1.73;;;1.10;;
11618;SDS011;5865;48.776;9.280;2023-11-19T09:38:58;1.30;;;1.20;;
11618;SDS011;5865;48.776;9.280;2023-11-19T09:41:39;1.50;;;1.10;;
11618;SDS011;5865;48.776;9.280;2023-11-19T09:44:22;2.33;;;1.03;;
11618;SDS011;5865;48.776;9.280;2023-11-19T09:46:50;0.90;;;0.70;;
11618;SDS011;5865;48.776;9.280;2023-11-19T09:49:19;1.00;;;0.90;;
11618;SDS011;5865;48.776;9.280;2023-11-19T09:52:02;1.10;;;0.83;;
11618;SDS011;5865;48.776;9.280;2023-11-19T09:54:37;0.80;;;0.80;;
11618;SDS011;5865;48.776;9.280;2023-11-19T09:57:23;1.53;;;0.90;;
11618;SDS011;5865;48.776;9.280;2023-11-19T10:02:55;1.73;;;0.90;;
11618;SDS011;5865;48.776;9.280;2023-11-19T10:05:37;1.27;;;0.85;;
11618;SDS011;5865;48.776;9.280;2023-11-19T10:08:18;1.90;;;1.40;;
11618;SDS011;5865;48.776;9.280;2023-11-19T10:10:47;1.30;;;1.10;;
11618;SDS011;5865;48.776;9.280;2023-11-19T10:13:21;1.13;;;0.93;;
11618;SDS011;5865;48.776;9.280;2023-11-19T10:15:56;5.50;;;3.65;;
11618;SDS011;5865;48.776;9.280;2023-11-19T10:18:25;2.55;;;1.40;;
11618;SDS011;5865;48.776;9.280;2023-11-19T10:20:52;1.05;;;0.75;;
11618;SDS011;5865;48.776;9.280;2023-11-19T10:23:20;1.00;;;0.90;;
11618;SDS011;5865;48.776;9.280;2023-11-19T10:25:47;1.10;;;0.90;;
11618;SDS011;5865;48.776;9.280;2023-11-19T10:28:14;1.30;;;1.20;;
11618;SDS011;5865;48.776;9.280;2023-11-19T10:30:42;0.95;;;0.82;;
11618;SDS011;5865;48.776;9.280;2023-11-19T10:33:09;1.30;;;1.20;;
11618;SDS011;5865;48.776;9.280;2023-11-19T10:35:51;0.60;;;0.60;;
11618;SDS011;5865;48.776;9.280;2023-11-19T10:38:19;1.10;;;1.00;;
11618;SDS011;5865;48.776;9.280;2023-11-19T10:40:47;2.55;;;0.90;;
11618;SDS011;5865;48.776;9.280;2023-11-19T10:43:14;0.85;;;0.80;;
11618;SDS011;5865;48.776;9.280;2023-11-19T10:45:41;0.88;;;0.77;;
11618;SDS011;5865;48.776;9.280;2023-11-19T10:48:08;2.30;;;0.80;;
11618;SDS011;5865;48.776;9.280;2023-11-19T10:50:38;1.05;;;0.73;;
11618;SDS011;5865;48.776;9.280;2023-11-19T10:53:08;1.02;;;0.90;;
11618;SDS011;5865;48.776;9.280;2023-11-19T10:55:36;1.70;;;1.40;;
11618;SDS011;5865;48.776;9.280;2023-11-19T10:58:05;1.38;;;1.27;;
11618;SDS011;5865;48.776;9.280;2023-11-19T11:00:34;1.10;;;0.90;;
11618;SDS011;5865;48.776;9.280;2023-11-19T11:03:08;2.70;;;1.05;;
11618;SDS011;5865;48.776;9.280;2023-11-19T11:05:37;1.55;;;0.90;;
11618;SDS011;5865;48.776;9.280;2023-11-19T11:08:09;8.90;;;3.30;;
11618;SDS011;5865;48.776;9.280;2023-11-19T11:10:39;1.35;;;1.02;;
11618;SDS011;5865;48.776;9.280;2023-11-19T11:13:09;1.80;;;0.70;;
11618;SDS011;5865;48.776;9.280;2023-11-19T11:15:37;1.33;;;0.82;;
11618;SDS011;5865;48.776;9.280;2023-11-19T11:18:04;7.47;;;5.03;;
11618;SDS011;5865;48.776;9.280;2023-11-19T11:20:34;3.13;;;2.58;;
11618;SDS011;5865;48.776;9.280;2023-11-19T11:23:07;1.33;;;0.70;;
11618;SDS011;5865;48.776;9.280;2023-11-19T11:25:53;2.25;;;1.92;;
11618;SDS011;5865;48.776;9.280;2023-11-19T11:28:28;0.60;;;0.60;;
11618;SDS011;5865;48.776;9.280;2023-11-19T11:31:08;1.10;;;0.80;;
11618;SDS011;5865;48.776;9.280;2023-11-19T11:33:44;0.85;;;0.70;;
11618;SDS011;5865;48.776;9.280;2023-11-19T11:36:36;2.00;;;1.30;;
11618;SDS011;5865;48.776;9.280;2023-11-19T11:39:12;1.75;;;0.90;;
11618;SDS011;5865;48.776;9.280;2023-11-19T11:41:40;1.67;;;1.00;;
11618;SDS011;5865;48.776;9.280;2023-11-19T11:44:08;1.13;;;0.65;;
11618;SDS011;5865;48.776;9.280;2023-11-19T11:46:53;1.25;;;0.85;;
11618;SDS011;5865;48.776;9.280;2023-11-19T11:49:27;1.95;;;1.00;;
11618;SDS011;5865;48.776;9.280;2023-11-19T11:51:58;1.70;;;0.77;;
11618;SDS011;5865;48.776;9.280;2023-11-19T11:54:30;1.67;;;0.70;;
11618;SDS011;5865;48.776;9.280;2023-11-19T11:57:02;1.13;;;0.77;;
11618;SDS011;5865;48.776;9.280;2023-11-19T11:59:31;2.80;;;1.33;;
11618;SDS011;5865;48.776;9.280;2023-11-19T12:02:03;1.25;;;0.70;;
11618;SDS011;5865;48.776;9.280;2023-11-19T12:04:30;1.58;;;0.80;;
11618;SDS011;5865;48.776;9.280;2023-11-19T12:07:04;1.63;;;0.70;;
11618;SDS011;5865;48.776;9.280;2023-11-19T12:09:33;2.28;;;1.10;;
11618;SDS011;5865;48.776;9.280;2023-11-19T12:12:13;1.73;;;1.50;;
11618;SDS011;5865;48.776;9.280;2023-11-19T12:15:05;1.70;;;0.90;;
11618;SDS011;5865;48.776;9.280;2023-11-19T12:17:36;1.10;;;1.00;;
11618;SDS011;5865;48.776;9.280;2023-11-19T12:20:14;1.30;;;0.60;;
11618;SDS011;5865;48.776;9.280;2023-11-19T12:22:42;4.05;;;3.00;;
11618;SDS011;5865;48.776;9.280;2023-11-19T12:25:11;2.88;;;1.20;;
11618;SDS011;5865;48.776;9.280;2023-11-19T12:27:39;1.98;;;0.90;;
11618;SDS011;5865;48.776;9.280;2023-11-19T12:30:07;1.30;;;1.10;;
11618;SDS011;5865;48.776;9.280;2023-11-19T12:32:38;2.50;;;1.20;;
11618;SDS011;5865;48.776;9.280;2023-11-19T12:35:06;2.58;;;1.30;;
11618;SDS011;5865;48.776;9.280;2023-11-19T12:37:42;1.33;;;1.10;;
11618;SDS011;5865;48.776;9.280;2023-11-19T12:40:15;2.03;;;1.63;;
11618;SDS011;5865;48.776;9.280;2023-11-19T12:42:44;4.72;;;2.10;;
11618;SDS011;5865;48.776;9.280;2023-11-19T12:45:11;2.00;;;1.10;;
11618;SDS011;5865;48.776;9.280;2023-11-19T12:47:38;2.10;;;1.70;;
11618;SDS011;5865;48.776;9.280;2023-11-19T12:50:06;1.88;;;1.10;;
11618;SDS011;5865;48.776;9.280;2023-11-19T12:52:34;3.10;;;1.48;;
11618;SDS011;5865;48.776;9.280;2023-11-19T12:55:02;3.22;;;1.75;;
11618;SDS011;5865;48.776;9.280;2023-11-19T12:57:39;1.35;;;1.25;;
11618;SDS011;5865;48.776;9.280;2023-11-19T13:00:07;1.05;;;0.80;;
11618;SDS011;5865;48.776;9.280;2023-11-19T13:02:46;2.00;;;0.70;;
11618;SDS011;5865;48.776;9.280;2023-11-19T13:05:21;1.40;;;0.63;;
11618;SDS011;5865;48.776;9.280;2023-11-19T13:08:00;1.50;;;0.90;;
11618;SDS011;5865;48.776;9.280;2023-11-19T13:10:28;2.38;;;0.93;;
11618;SDS011;5865;48.776;9.280;2023-11-19T13:13:05;2.08;;;1.23;;
11618;SDS011;5865;48.776;9.280;2023-11-19T13:15:33;1.38;;;0.90;;
11618;SDS011;5865;48.776;9.280;2023-11-19T13:18:01;1.27;;;0.82;;
11618;SDS011;5865;48.776;9.280;2023-11-19T13:20:29;1.17;;;0.65;;
11618;SDS011;5865;48.776;9.280;2023-11-19T13:22:57;2.08;;;0.85;;
11618;SDS011;5865;48.776;9.280;2023-11-19T13:25:25;0.45;;;0.40;;
11618;SDS011;5865;48.776;9.280;2023-11-19T13:27:52;1.13;;;0.60;;
11618;SDS011;5865;48.776;9.280;2023-11-19T13:30:21;1.30;;;0.80;;
11618;SDS011;5865;48.776;9.280;2023-11-19T13:32:48;1.27;;;0.63;;
11618;SDS011;5865;48.776;9.280;2023-11-19T13:35:16;2.05;;;1.10;;
11618;SDS011;5865;48.776;9.280;2023-11-19T13:37:44;2.30;;;1.08;;
11618;SDS011;5865;48.776;9.280;2023-11-19T13:40:11;1.13;;;0.68;;
11618;SDS011;5865;48.776;9.280;2023-11-19T13:42:40;1.52;;;0.70;;
11618;SDS011;5865;48.776;9.280;2023-11-19T13:45:08;1.23;;;0.57;;
11618;SDS011;5865;48.776;9.280;2023-11-19T13:47:38;2.90;;;2.00;;
11618;SDS011;5865;48.776;9.280;2023-11-19T13:50:07;1.67;;;0.90;;
11618;SDS011;5865;48.776;9.280;2023-11-19T13:52:35;3.38;;;1.45;;
11618;SDS011;5865;48.776;9.280;2023-11-19T13:55:05;2.80;;;1.55;;
11618;SDS011;5865;48.776;9.280;2023-11-19T13:57:32;2.03;;;1.10;;
11618;SDS011;5865;48.776;9.280;2023-11-19T13:59:59;1.90;;;1.23;;
11618;SDS011;5865;48.776;9.280;2023-11-19T14:02:34;1.23;;;0.98;;
11618;SDS011;5865;48.776;9.280;2023-11-19T14:05:03;0.93;;;0.85;;
11618;SDS011;5865;48.776;9.280;2023-11-19T14:07:31;2.08;;;1.73;;
11618;SDS011;5865;48.776;9.280;2023-11-19T14:09:58;1.65;;;0.68;;
11618;SDS011;5865;48.776;9.280;2023-11-19T14:12:25;1.02;;;0.90;;
11618;SDS011;5865;48.776;9.280;2023-11-19T14:14:51;3.10;;;1.05;;
11618;SDS011;5865;48.776;9.280;2023-11-19T14:17:19;2.83;;;1.05;;
11618;SDS011;5865;48.776;9.280;2023-11-19T14:19:46;2.58;;;0.80;;
11618;SDS011;5865;48.776;9.280;2023-11-19T14:22:14;1.25;;;0.70;;
11618;SDS011;5865;48.776;9.280;2023-11-19T14:24:41;0.75;;;0.70;;
11618;SDS011;5865;48.776;9.280;2023-11-19T14:27:09;1.38;;;0.82;;
11618;SDS011;5865;48.776;9.280;2023-11-19T14:29:36;1.17;;;0.90;;
11618;SDS011;5865;48.776;9.280;2023-11-19T14:32:05;1.20;;;0.90;;
11618;SDS011;5865;48.776;9.280;2023-11-19T14:34:32;1.23;;;1.02;;
11618;SDS011;5865;48.776;9.280;2023-11-19T14:36:59;2.08;;;1.00;;
11618;SDS011;5865;48.776;9.280;2023-11-19T14:39:28;1.08;;;0.70;;
11618;SDS011;5865;48.776;9.280;2023-11-19T14:41:56;1.00;;;0.70;;
11618;SDS011;5865;48.776;9.280;2023-11-19T14:44:26;2.20;;;1.65;;
11618;SDS011;5865;48.776;9.280;2023-11-19T14:46:54;0.82;;;0.50;;
11618;SDS011;5865;48.776;9.280;2023-11-19T14:49:22;0.60;;;0.60;;
11618;SDS011;5865;48.776;9.280;2023-11-19T14:51:49;1.92;;;0.73;;
11618;SDS011;5865;48.776;9.280;2023-11-19T14:54:16;1.23;;;0.90;;
11618;SDS011;5865;48.776;9.280;2023-11-19T14:56:44;1.35;;;1.15;;
11618;SDS011;5865;48.776;9.280;2023-11-19T14:59:11;2.50;;;1.80;;
11618;SDS011;5865;48.776;9.280;2023-11-19T15:01:38;2.97;;;1.45;;
11618;SDS011;5865;48.776;9.280;2023-11-19T15:04:06;1.98;;;1.20;;
11618;SDS011;5865;48.776;9.280;2023-11-19T15:06:33;1.23;;;1.00;;
11618;SDS011;5865;48.776;9.280;2023-11-19T15:09:00;1.65;;;1.10;;
11618;SDS011;5865;48.776;9.280;2023-11-19T15:11:27;2.55;;;1.20;;
11618;SDS011;5865;48.776;9.280;2023-11-19T15:13:55;1.55;;;1.20;;
11618;SDS011;5865;48.776;9.280;2023-11-19T15:16:22;2.00;;;1.10;;
11618;SDS011;5865;48.776;9.280;2023-11-19T15:18:56;1.40;;;1.13;;
11618;SDS011;5865;48.776;9.280;2023-11-19T15:21:24;2.15;;;1.20;;
11618;SDS011;5865;48.776;9.280;2023-11-19T15:23:52;2.73;;;1.73;;
11618;SDS011;5865;48.776;9.280;2023-11-19T15:26:19;1.47;;;1.10;;
11618;SDS011;5865;48.776;9.280;2023-11-19T15:28:46;1.30;;;1.20;;
11618;SDS011;5865;48.776;9.280;2023-11-19T15:31:14;2.30;;;1.70;;
11618;SDS011;5865;48.776;9.280;2023-11-19T15:33:41;2.33;;;1.40;;
11618;SDS011;5865;48.776;9.280;2023-11-19T15:36:09;2.07;;;1.30;;
11618;SDS011;5865;48.776;9.280;2023-11-19T15:38:36;2.23;;;1.30;;
11618;SDS011;5865;48.776;9.280;2023-11-19T15:41:03;1.70;;;1.30;;
11618;SDS011;5865;48.776;9.280;2023-11-19T15:43:32;1.10;;;0.97;;
11618;SDS011;5865;48.776;9.280;2023-11-19T15:45:59;1.10;;;1.00;;
11618;SDS011;5865;48.776;9.280;2023-11-19T15:48:27;2.53;;;1.60;;
11618;SDS011;5865;48.776;9.280;2023-11-19T15:50:54;1.43;;;1.20;;
11618;SDS011;5865;48.776;9.280;2023-11-19T15:53:21;1.90;;;1.30;;
11618;SDS011;5865;48.776;9.280;2023-11-19T15:55:48;2.00;;;1.50;;
11618;SDS011;5865;48.776;9.280;2023-11-19T15:58:18;1.90;;;1.60;;
11618;SDS011;5865;48.776;9.280;2023-11-19T16:00:45;2.87;;;1.60;;
11618;SDS011;5865;48.776;9.280;2023-11-19T16:03:12;3.67;;;2.77;;
11618;SDS011;5865;48.776;9.280;2023-11-19T16:05:41;1.67;;;1.40;;
11618;SDS011;5865;48.776;9.280;2023-11-19T16:08:08;2.50;;;1.10;;
11618;SDS011;5865;48.776;9.280;2023-11-19T16:10:36;3.00;;;1.43;;
11618;SDS011;5865;48.776;9.280;2023-11-19T16:13:05;1.40;;;1.10;;
11618;SDS011;5865;48.776;9.280;2023-11-19T16:15:33;4.27;;;3.80;;
11618;SDS011;5865;48.776;9.280;2023-11-19T16:18:00;2.10;;;1.50;;
11618;SDS011;5865;48.776;9.280;2023-11-19T16:20:27;1.73;;;1.20;;
11618;SDS011;5865;48.776;9.280;2023-11-19T16:22:56;1.33;;;0.90;;
11618;SDS011;5865;48.776;9.280;2023-11-19T16:25:25;2.53;;;1.50;;
11618;SDS011;5865;48.776;9.280;2023-11-19T16:27:52;2.20;;;1.30;;
11618;SDS011;5865;48.776;9.280;2023-11-19T16:30:20;3.80;;;1.90;;
11618;SDS011;5865;48.776;9.280;2023-11-19T16:32:48;3.20;;;1.40;;
11618;SDS011;5865;48.776;9.280;2023-11-19T16:35:19;4.00;;;1.73;;
11618;SDS011;5865;48.776;9.280;2023-11-19T16:37:47;2.60;;;1.50;;
11618;SDS011;5865;48.776;9.280;2023-11-19T16:40:16;6.80;;;5.70;;
11618;SDS011;5865;48.776;9.280;2023-11-19T16:42:43;5.73;;;3.50;;
11618;SDS011;5865;48.776;9.280;2023-11-19T16:45:11;4.20;;;3.50;;
11618;SDS011;5865;48.776;9.280;2023-11-19T16:47:39;4.90;;;2.90;;
11618;SDS011;5865;48.776;9.280;2023-11-19T16:50:06;4.40;;;2.40;;
11618;SDS011;5865;48.776;9.280;2023-11-19T16:52:34;3.07;;;2.00;;
11618;SDS011;5865;48.776;9.280;2023-11-19T16:55:01;3.57;;;2.40;;
11618;SDS011;5865;48.776;9.280;2023-11-19T16:57:37;4.00;;;1.63;;
11618;SDS011;5865;48.776;9.280;2023-11-19T17:00:05;2.00;;;1.40;;
11618;SDS011;5865;48.776;9.280;2023-11-19T17:02:36;3.80;;;1.70;;
11618;SDS011;5865;48.776;9.280;2023-11-19T17:05:07;2.80;;;1.50;;
11618;SDS011;5865;48.776;9.280;2023-11-19T17:07:34;2.70;;;2.40;;
11618;SDS011;5865;48.776;9.280;2023-11-19T17:10:02;2.67;;;2.00;;
11618;SDS011;5865;48.776;9.280;2023-11-19T17:12:29;3.80;;;2.00;;
11618;SDS011;5865;48.776;9.280;2023-11-19T17:14:58;2.53;;;1.93;;
11618;SDS011;5865;48.776;9.280;2023-11-19T17:17:29;3.70;;;1.73;;
11618;SDS011;5865;48.776;9.280;2023-11-19T17:19:59;2.07;;;1.50;;